createdAt,value
2017-06-03T00:00:38.864Z,0
2017-06-03T00:01:54.579Z,0
2017-06-03T00:03:10.322Z,0
2017-06-03T00:04:25.760Z,0
2017-06-03T00:05:41.445Z,0
2017-06-03T00:06:56.919Z,0
2017-06-03T00:08:12.389Z,0
2017-06-03T00:09:27.913Z,0
2017-06-03T00:10:42.377Z,0
2017-06-03T00:11:57.881Z,0
2017-06-03T00:13:13.350Z,0
2017-06-03T00:14:28.770Z,0
2017-06-03T00:15:42.969Z,0
2017-06-03T00:16:58.403Z,0
2017-06-03T00:18:13.829Z,0
2017-06-03T00:19:29.271Z,0
2017-06-03T00:20:44.929Z,0
2017-06-03T00:22:00.399Z,0
2017-06-03T00:23:15.819Z,0
2017-06-03T00:24:29.958Z,0
2017-06-03T00:25:45.629Z,0
2017-06-03T00:27:01.099Z,0
2017-06-03T00:28:16.540Z,0
2017-06-03T00:29:31.669Z,0
2017-06-03T00:30:47.029Z,0
2017-06-03T00:32:02.423Z,0
2017-06-03T00:33:17.847Z,0
2017-06-03T00:34:33.325Z,0
2017-06-03T00:35:48.962Z,0
2017-06-03T00:37:03.073Z,0
2017-06-03T00:38:18.523Z,0
2017-06-03T00:39:32.690Z,0
2017-06-03T00:40:47.026Z,0
2017-06-03T00:42:02.456Z,0
2017-06-03T00:43:16.586Z,0
2017-06-03T00:44:32.002Z,0
2017-06-03T00:45:47.653Z,0
2017-06-03T00:47:01.983Z,0
2017-06-03T00:48:16.101Z,0
2017-06-03T00:49:30.258Z,0
2017-06-03T00:50:44.434Z,0
2017-06-03T00:52:00.073Z,0
2017-06-03T00:53:15.525Z,0
2017-06-03T00:54:31.076Z,0
2017-06-03T00:55:46.637Z,0
2017-06-03T00:57:02.325Z,0
2017-06-03T00:58:16.457Z,0
2017-06-03T00:59:31.916Z,0
2017-06-03T01:00:47.318Z,0
2017-06-03T01:02:01.689Z,0
2017-06-03T01:03:17.183Z,0
2017-06-03T01:04:32.733Z,0
2017-06-03T01:05:48.224Z,0
2017-06-03T01:07:04.190Z,0
2017-06-03T01:08:19.885Z,0
2017-06-03T01:09:35.342Z,0
2017-06-03T01:10:50.867Z,0
2017-06-03T01:12:06.540Z,0
2017-06-03T01:13:20.544Z,0
2017-06-03T01:14:36.053Z,0
2017-06-03T01:15:50.249Z,0
2017-06-03T01:17:05.900Z,0
2017-06-03T01:18:19.905Z,0
2017-06-03T01:19:35.383Z,0
2017-06-03T01:20:50.806Z,0
2017-06-03T01:22:06.685Z,0
2017-06-03T01:23:22.172Z,0
2017-06-03T01:25:08.589Z,0
2017-06-03T01:26:24.363Z,0
2017-06-03T01:27:40.252Z,0
2017-06-03T01:28:55.890Z,0
2017-06-03T01:30:11.461Z,0
2017-06-03T01:31:24.288Z,0
2017-06-03T01:32:39.885Z,0
2017-06-03T01:33:55.341Z,0
2017-06-03T01:35:10.813Z,0
2017-06-03T01:36:26.219Z,0
2017-06-03T01:37:42.163Z,0
2017-06-03T01:38:55.941Z,0
2017-06-03T01:40:11.391Z,0
2017-06-03T01:41:26.869Z,0
2017-06-03T01:42:42.554Z,0
2017-06-03T01:43:58.068Z,0
2017-06-03T01:45:13.755Z,0
2017-06-03T01:46:29.221Z,0
2017-06-03T01:48:15.720Z,0
2017-06-03T01:49:31.131Z,0
2017-06-03T01:50:46.579Z,0
2017-06-03T01:52:02.033Z,0
2017-06-03T01:53:18.008Z,0
2017-06-03T01:54:32.304Z,0
2017-06-03T01:55:47.716Z,0
2017-06-03T01:57:02.766Z,0
2017-06-03T01:58:16.948Z,0
2017-06-03T01:59:32.886Z,0
2017-06-03T02:00:48.337Z,0
2017-06-03T02:02:04.108Z,0
2017-06-03T02:03:19.716Z,0
2017-06-03T02:04:35.196Z,0
2017-06-03T02:05:50.695Z,0
2017-06-03T02:07:06.327Z,0
2017-06-03T02:08:21.981Z,0
2017-06-03T02:09:37.683Z,0
2017-06-03T02:10:53.114Z,0
2017-06-03T02:12:05.981Z,0
2017-06-03T02:13:21.706Z,0
2017-06-03T02:14:37.153Z,0
2017-06-03T02:15:51.302Z,0
2017-06-03T02:17:07.042Z,0
2017-06-03T02:18:22.690Z,0
2017-06-03T02:19:38.341Z,0
2017-06-03T02:20:54.044Z,0
2017-06-03T02:22:09.708Z,0
2017-06-03T02:23:25.581Z,0
2017-06-03T02:24:41.167Z,0
2017-06-03T02:25:56.707Z,0
2017-06-03T02:27:12.183Z,0
2017-06-03T02:28:26.517Z,0
2017-06-03T02:29:41.959Z,0
2017-06-03T02:30:57.443Z,0
2017-06-03T02:32:12.919Z,0
2017-06-03T02:33:28.580Z,0
2017-06-03T02:34:44.040Z,0
2017-06-03T02:35:58.221Z,0
2017-06-03T02:37:13.689Z,0
2017-06-03T02:38:29.330Z,0
2017-06-03T02:39:44.837Z,0
2017-06-03T02:41:00.277Z,0
2017-06-03T02:42:15.747Z,0
2017-06-03T02:43:31.831Z,0
2017-06-03T02:44:47.293Z,0
2017-06-03T02:46:02.927Z,0
2017-06-03T02:47:18.317Z,0
2017-06-03T02:48:33.983Z,0
2017-06-03T02:49:48.171Z,0
2017-06-03T02:51:03.614Z,0
2017-06-03T02:52:19.068Z,0
2017-06-03T02:53:34.639Z,5
2017-06-03T02:54:50.056Z,5
2017-06-03T02:56:05.488Z,5
2017-06-03T02:57:19.673Z,5
2017-06-03T02:58:33.996Z,5
2017-06-03T02:59:49.425Z,5
2017-06-03T03:01:04.846Z,5
2017-06-03T03:02:20.308Z,10
2017-06-03T03:03:34.502Z,10
2017-06-03T03:04:49.965Z,10
2017-06-03T03:06:05.411Z,10
2017-06-03T03:07:20.868Z,15
2017-06-03T03:08:36.508Z,15
2017-06-03T03:09:50.645Z,15
2017-06-03T03:11:04.784Z,20
2017-06-03T03:12:20.248Z,20
2017-06-03T03:13:36.339Z,20
2017-06-03T03:14:51.773Z,25
2017-06-03T03:16:07.228Z,25
2017-06-03T03:17:22.637Z,25
2017-06-03T03:18:38.713Z,25
2017-06-03T03:19:52.905Z,25
2017-06-03T03:21:06.876Z,25
2017-06-03T03:22:22.235Z,25
2017-06-03T03:23:37.895Z,30
2017-06-03T03:24:53.335Z,30
2017-06-03T03:26:08.796Z,30
2017-06-03T03:27:24.248Z,30
2017-06-03T03:28:39.945Z,30
2017-06-03T03:29:55.405Z,30
2017-06-03T03:31:10.887Z,30
2017-06-03T03:32:26.334Z,30
2017-06-03T03:33:39.194Z,30
2017-06-03T03:34:53.713Z,30
2017-06-03T03:36:09.061Z,30
2017-06-03T03:37:24.534Z,30
2017-06-03T03:38:38.876Z,35
2017-06-03T03:39:54.522Z,35
2017-06-03T03:41:09.947Z,35
2017-06-03T03:42:25.363Z,40
2017-06-03T03:43:39.333Z,40
2017-06-03T03:44:55.007Z,45
2017-06-03T03:46:09.113Z,50
2017-06-03T03:47:24.570Z,55
2017-06-03T03:48:38.824Z,60
2017-06-03T03:49:54.473Z,60
2017-06-03T03:51:09.920Z,65
2017-06-03T03:52:25.312Z,65
2017-06-03T03:53:41.041Z,70
2017-06-03T03:54:55.419Z,70
2017-06-03T03:56:10.835Z,70
2017-06-03T03:57:26.279Z,70
2017-06-03T03:58:42.000Z,75
2017-06-03T03:59:57.609Z,75
2017-06-03T04:01:11.718Z,75
2017-06-03T04:02:27.199Z,75
2017-06-03T04:03:42.575Z,80
2017-06-03T04:04:58.286Z,80
2017-06-03T04:06:13.960Z,80
2017-06-03T04:07:29.420Z,80
2017-06-03T04:08:45.199Z,80
2017-06-03T04:10:00.787Z,85
2017-06-03T04:11:16.176Z,85
2017-06-03T04:12:31.645Z,85
2017-06-03T04:13:47.094Z,90
2017-06-03T04:15:02.960Z,90
2017-06-03T04:16:18.050Z,95
2017-06-03T04:17:33.553Z,95
2017-06-03T04:18:49.017Z,100
2017-06-03T04:20:03.227Z,105
2017-06-03T04:21:17.312Z,110
2017-06-03T04:22:31.688Z,120
2017-06-03T04:23:47.132Z,125
2017-06-03T04:25:02.809Z,135
2017-06-03T04:26:18.413Z,145
2017-06-03T04:27:33.832Z,155
2017-06-03T04:28:49.250Z,170
2017-06-03T04:30:04.825Z,180
2017-06-03T04:31:20.223Z,185
2017-06-03T04:32:34.537Z,185
2017-06-03T04:33:49.913Z,175
2017-06-03T04:35:05.534Z,165
2017-06-03T04:36:20.946Z,160
2017-06-03T04:37:36.386Z,150
2017-06-03T04:38:51.859Z,140
2017-06-03T04:40:07.470Z,130
2017-06-03T04:41:21.567Z,115
2017-06-03T04:42:37.130Z,100
2017-06-03T04:43:52.814Z,90
2017-06-03T04:45:08.435Z,75
2017-06-03T04:46:22.446Z,70
2017-06-03T04:47:37.927Z,65
2017-06-03T04:48:53.311Z,65
2017-06-03T04:50:09.059Z,60
2017-06-03T04:51:23.190Z,60
2017-06-03T04:52:35.848Z,65
2017-06-03T04:53:51.298Z,65
2017-06-03T04:55:07.434Z,65
2017-06-03T04:56:22.862Z,70
2017-06-03T04:57:35.699Z,70
2017-06-03T04:58:51.083Z,75
2017-06-03T05:00:05.246Z,75
2017-06-03T05:01:20.959Z,80
2017-06-03T05:02:36.373Z,85
2017-06-03T05:03:51.863Z,90
2017-06-03T05:05:05.992Z,90
2017-06-03T05:06:21.617Z,85
2017-06-03T05:07:37.096Z,80
2017-06-03T05:08:52.591Z,80
2017-06-03T05:10:08.018Z,75
2017-06-03T05:11:22.516Z,70
2017-06-03T05:12:36.497Z,70
2017-06-03T05:13:50.852Z,70
2017-06-03T05:15:37.350Z,70
2017-06-03T05:16:51.700Z,70
2017-06-03T05:18:07.154Z,70
2017-06-03T05:19:22.591Z,65
2017-06-03T05:20:38.018Z,65
2017-06-03T05:21:53.668Z,70
2017-06-03T05:23:09.271Z,70
2017-06-03T05:24:24.308Z,70
2017-06-03T05:25:39.680Z,70
2017-06-03T05:26:55.517Z,70
2017-06-03T05:28:10.937Z,75
2017-06-03T05:29:26.424Z,80
2017-06-03T05:30:41.776Z,85
2017-06-03T05:31:57.521Z,95
2017-06-03T05:33:12.974Z,105
2017-06-03T05:34:28.442Z,110
2017-06-03T05:35:43.946Z,120
2017-06-03T05:36:59.587Z,135
2017-06-03T05:38:15.126Z,150
2017-06-03T05:39:29.266Z,160
2017-06-03T05:40:44.808Z,175
2017-06-03T05:42:00.491Z,195
2017-06-03T05:43:16.214Z,215
2017-06-03T05:44:31.682Z,225
2017-06-03T05:45:45.683Z,245
2017-06-03T05:47:01.350Z,260
2017-06-03T05:48:16.786Z,270
2017-06-03T05:49:32.269Z,280
2017-06-03T05:50:47.706Z,285
2017-06-03T05:52:03.320Z,285
2017-06-03T05:53:18.740Z,285
2017-06-03T05:54:34.300Z,285
2017-06-03T05:55:49.752Z,270
2017-06-03T05:57:04.090Z,260
2017-06-03T05:58:19.525Z,260
2017-06-03T05:59:34.939Z,255
2017-06-03T06:00:49.001Z,245
2017-06-03T06:02:04.625Z,235
2017-06-03T06:03:20.069Z,225
2017-06-03T06:04:34.085Z,210
2017-06-03T06:05:49.587Z,205
2017-06-03T06:07:05.233Z,195
2017-06-03T06:08:20.788Z,190
2017-06-03T06:09:34.826Z,180
2017-06-03T06:10:50.368Z,175
2017-06-03T06:12:06.000Z,180
2017-06-03T06:13:21.408Z,180
2017-06-03T06:14:36.826Z,180
2017-06-03T06:15:50.996Z,185
2017-06-03T06:17:06.735Z,200
2017-06-03T06:18:22.377Z,230
2017-06-03T06:19:37.870Z,255
2017-06-03T06:20:53.313Z,270
2017-06-03T06:22:07.699Z,280
2017-06-03T06:23:21.877Z,285
2017-06-03T06:24:37.354Z,305
2017-06-03T06:25:51.897Z,340
2017-06-03T06:27:06.271Z,370
2017-06-03T06:28:21.659Z,390
2017-06-03T06:29:34.621Z,395
2017-06-03T06:31:20.898Z,365
2017-06-03T06:32:34.046Z,360
2017-06-03T06:33:49.551Z,385
2017-06-03T06:35:04.972Z,415
2017-06-03T06:36:19.133Z,460
2017-06-03T06:37:34.775Z,500
2017-06-03T06:38:50.163Z,540
2017-06-03T06:40:04.367Z,540
2017-06-03T06:41:18.509Z,550
2017-06-03T06:42:34.204Z,545
2017-06-03T06:43:49.753Z,565
2017-06-03T06:45:05.213Z,565
2017-06-03T06:46:20.291Z,525
2017-06-03T06:47:35.984Z,470
2017-06-03T06:48:51.412Z,440
2017-06-03T06:50:06.756Z,430
2017-06-03T06:51:22.177Z,415
2017-06-03T06:52:37.848Z,395
2017-06-03T06:53:52.052Z,375
2017-06-03T06:55:07.868Z,380
2017-06-03T06:56:23.340Z,385
2017-06-03T06:57:39.048Z,385
2017-06-03T06:58:54.545Z,385
2017-06-03T07:00:09.977Z,360
2017-06-03T07:01:25.418Z,335
2017-06-03T07:02:41.139Z,315
2017-06-03T07:03:56.598Z,285
2017-06-03T07:05:12.048Z,270
2017-06-03T07:06:27.989Z,260
2017-06-03T07:07:43.628Z,250
2017-06-03T07:08:59.148Z,240
2017-06-03T07:10:13.266Z,245
2017-06-03T07:11:28.695Z,250
2017-06-03T07:12:44.352Z,245
2017-06-03T07:13:58.768Z,240
2017-06-03T07:15:14.414Z,235
2017-06-03T07:16:28.371Z,235
2017-06-03T07:17:44.348Z,220
2017-06-03T07:18:59.795Z,205
2017-06-03T07:20:13.984Z,200
2017-06-03T07:21:29.505Z,200
2017-06-03T07:22:43.809Z,215
2017-06-03T07:23:59.462Z,225
2017-06-03T07:25:14.906Z,230
2017-06-03T07:26:30.399Z,235
2017-06-03T07:27:46.331Z,230
2017-06-03T07:29:01.775Z,235
2017-06-03T07:30:17.254Z,230
2017-06-03T07:31:32.660Z,235
2017-06-03T07:32:48.288Z,225
2017-06-03T07:34:01.109Z,210
2017-06-03T07:35:15.289Z,195
2017-06-03T07:36:30.705Z,185
2017-06-03T07:37:46.190Z,170
2017-06-03T07:39:01.824Z,150
2017-06-03T07:40:17.259Z,145
2017-06-03T07:41:32.776Z,160
2017-06-03T07:42:48.240Z,160
2017-06-03T07:44:03.912Z,145
2017-06-03T07:45:19.299Z,125
2017-06-03T07:46:34.738Z,110
2017-06-03T07:47:50.225Z,110
2017-06-03T07:49:05.928Z,115
2017-06-03T07:50:21.376Z,120
2017-06-03T07:51:35.549Z,125
2017-06-03T07:52:49.591Z,135
2017-06-03T07:54:05.351Z,150
2017-06-03T07:55:20.814Z,150
2017-06-03T07:56:36.280Z,145
2017-06-03T07:57:51.645Z,135
2017-06-03T07:59:06.306Z,130
2017-06-03T08:00:21.811Z,120
2017-06-03T08:01:37.309Z,115
2017-06-03T08:02:52.951Z,115
2017-06-03T08:04:08.620Z,115
2017-06-03T08:05:24.111Z,120
2017-06-03T08:06:38.266Z,120
2017-06-03T08:07:53.690Z,125
2017-06-03T08:09:08.049Z,130
2017-06-03T08:10:23.629Z,125
2017-06-03T08:11:39.107Z,125
2017-06-03T08:12:51.848Z,125
2017-06-03T08:14:06.403Z,125
2017-06-03T08:15:22.178Z,130
2017-06-03T08:16:34.987Z,135
2017-06-03T08:17:50.348Z,140
2017-06-03T08:19:06.016Z,140
2017-06-03T08:20:20.120Z,140
2017-06-03T08:21:34.252Z,140
2017-06-03T08:22:49.684Z,135
2017-06-03T08:24:04.996Z,130
2017-06-03T08:25:20.464Z,130
2017-06-03T08:26:34.614Z,125
2017-06-03T08:27:50.064Z,120
2017-06-03T08:29:05.803Z,120
2017-06-03T08:30:21.222Z,120
2017-06-03T08:31:36.708Z,120
2017-06-03T08:32:52.156Z,120
2017-06-03T08:34:07.952Z,125
2017-06-03T08:35:23.434Z,125
2017-06-03T08:36:38.865Z,130
2017-06-03T08:37:54.320Z,135
2017-06-03T08:39:09.954Z,145
2017-06-03T08:40:25.751Z,155
2017-06-03T08:41:39.875Z,165
2017-06-03T08:42:55.732Z,170
2017-06-03T08:44:11.663Z,175
2017-06-03T08:45:27.149Z,180
2017-06-03T08:46:41.291Z,185
2017-06-03T08:47:56.808Z,190
2017-06-03T08:49:12.449Z,195
2017-06-03T08:50:28.175Z,200
2017-06-03T08:51:43.884Z,210
2017-06-03T08:52:59.322Z,225
2017-06-03T08:54:15.025Z,240
2017-06-03T08:55:30.447Z,260
2017-06-03T08:56:45.871Z,275
2017-06-03T08:58:01.341Z,305
2017-06-03T08:59:15.813Z,325
2017-06-03T09:00:30.048Z,355
2017-06-03T09:01:45.118Z,370
2017-06-03T09:03:00.537Z,355
2017-06-03T09:04:16.327Z,315
2017-06-03T09:05:31.845Z,260
2017-06-03T09:06:47.271Z,220
2017-06-03T09:08:02.780Z,190
2017-06-03T09:09:18.310Z,160
2017-06-03T09:10:33.977Z,135
2017-06-03T09:11:49.534Z,120
2017-06-03T09:13:04.898Z,110
2017-06-03T09:14:20.652Z,100
2017-06-03T09:15:34.828Z,100
2017-06-03T09:16:50.324Z,90
2017-06-03T09:18:05.691Z,90
2017-06-03T09:19:17.366Z,85
2017-06-03T09:20:32.889Z,85
2017-06-03T09:21:48.687Z,85
2017-06-03T09:23:04.189Z,90
2017-06-03T09:24:18.541Z,85
2017-06-03T09:25:34.130Z,90
2017-06-03T09:26:49.543Z,105
2017-06-03T09:28:05.026Z,125
2017-06-03T09:29:17.836Z,150
2017-06-03T09:31:04.734Z,190
2017-06-03T09:32:20.143Z,205
2017-06-03T09:33:35.802Z,215
2017-06-03T09:34:49.845Z,215
2017-06-03T09:36:04.259Z,220
2017-06-03T09:37:19.984Z,230
2017-06-03T09:38:35.465Z,235
2017-06-03T09:39:51.097Z,250
2017-06-03T09:41:06.783Z,265
2017-06-03T09:42:20.776Z,280
2017-06-03T09:43:34.935Z,305
2017-06-03T09:44:50.466Z,325
2017-06-03T09:46:06.235Z,330
2017-06-03T09:47:20.288Z,325
2017-06-03T09:48:35.781Z,300
2017-06-03T09:49:50.957Z,280
2017-06-03T09:51:05.593Z,290
2017-06-03T09:52:21.173Z,310
2017-06-03T09:53:36.656Z,310
2017-06-03T09:54:52.348Z,290
2017-06-03T09:56:08.080Z,285
2017-06-03T09:57:22.249Z,285
2017-06-03T09:58:37.796Z,270
2017-06-03T09:59:53.247Z,260
2017-06-03T10:01:08.655Z,245
2017-06-03T10:02:23.771Z,205
2017-06-03T10:03:37.934Z,180
2017-06-03T10:04:53.526Z,155
2017-06-03T10:06:07.871Z,155
2017-06-03T10:07:22.168Z,175
2017-06-03T10:08:37.609Z,200
2017-06-03T10:09:51.811Z,225
2017-06-03T10:11:06.375Z,270
2017-06-03T10:12:21.929Z,320
2017-06-03T10:13:37.399Z,360
2017-06-03T10:14:52.908Z,400
2017-06-03T10:16:08.657Z,440
2017-06-03T10:17:23.808Z,465
2017-06-03T10:18:39.316Z,475
2017-06-03T10:19:54.729Z,490
2017-06-03T10:21:10.453Z,510
2017-06-03T10:22:25.898Z,540
2017-06-03T10:23:40.113Z,570
2017-06-03T10:24:53.941Z,620
2017-06-03T10:26:07.100Z,675
2017-06-03T10:27:22.661Z,775
2017-06-03T10:28:36.846Z,905
2017-06-03T10:29:51.356Z,880
2017-06-03T10:31:05.511Z,1005
2017-06-03T10:32:19.845Z,1035
2017-06-03T10:33:35.336Z,980
2017-06-03T10:34:49.521Z,1095
2017-06-03T10:36:05.138Z,1500
2017-06-03T10:37:20.903Z,2675
2017-06-03T10:38:36.347Z,1060
2017-06-03T10:39:51.820Z,1065
2017-06-03T10:41:07.653Z,1030
2017-06-03T10:42:23.064Z,875
2017-06-03T10:43:38.776Z,875
2017-06-03T10:44:54.261Z,840
2017-06-03T10:46:09.742Z,825
2017-06-03T10:47:25.430Z,935
2017-06-03T10:48:39.544Z,985
2017-06-03T10:49:55.000Z,1010
2017-06-03T10:51:09.095Z,845
2017-06-03T10:52:24.750Z,745
2017-06-03T10:53:40.247Z,660
2017-06-03T10:54:54.253Z,590
2017-06-03T10:56:09.762Z,630
2017-06-03T10:57:23.950Z,690
2017-06-03T10:58:39.348Z,635
2017-06-03T10:59:54.784Z,605
2017-06-03T11:01:10.220Z,545
2017-06-03T11:02:25.958Z,500
2017-06-03T11:03:41.489Z,470
2017-06-03T11:04:56.929Z,485
2017-06-03T11:06:12.430Z,535
2017-06-03T11:07:28.147Z,590
2017-06-03T11:08:43.576Z,625
2017-06-03T11:09:56.313Z,600
2017-06-03T11:11:10.440Z,550
2017-06-03T11:12:26.288Z,575
2017-06-03T11:13:41.385Z,625
2017-06-03T11:14:56.877Z,775
2017-06-03T11:16:12.281Z,1060
2017-06-03T11:17:26.680Z,1475
2017-06-03T11:18:42.135Z,1305
2017-06-03T11:19:57.588Z,2140
2017-06-03T11:21:12.731Z,1770
2017-06-03T11:22:28.459Z,1310
2017-06-03T11:23:42.489Z,2000
2017-06-03T11:24:58.007Z,1630
2017-06-03T11:26:13.489Z,1440
2017-06-03T11:27:29.211Z,1305
2017-06-03T11:28:44.721Z,1020
2017-06-03T11:30:00.264Z,825
2017-06-03T11:31:15.742Z,730
2017-06-03T11:32:31.631Z,690
2017-06-03T11:33:47.142Z,645
2017-06-03T11:35:02.680Z,585
2017-06-03T11:36:18.377Z,580
2017-06-03T11:37:34.162Z,645
2017-06-03T11:38:49.829Z,790
2017-06-03T11:40:04.903Z,980
2017-06-03T11:41:19.069Z,1160
2017-06-03T11:42:33.240Z,1575
2017-06-03T11:43:48.880Z,2490
2017-06-03T11:45:03.062Z,2790
2017-06-03T11:46:18.630Z,2620
2017-06-03T11:47:32.801Z,2090
2017-06-03T11:48:48.670Z,2485
2017-06-03T11:50:04.149Z,2655
2017-06-03T11:51:19.767Z,2200
2017-06-03T11:52:35.237Z,2380
2017-06-03T11:53:50.939Z,2080
2017-06-03T11:55:05.178Z,1695
2017-06-03T11:56:20.627Z,1490
2017-06-03T11:57:36.095Z,1675
2017-06-03T11:58:52.048Z,1410
2017-06-03T12:00:07.599Z,1385
2017-06-03T12:01:23.154Z,1770
2017-06-03T12:02:38.862Z,1585
2017-06-03T12:03:54.647Z,1390
2017-06-03T12:05:10.131Z,1280
2017-06-03T12:06:25.564Z,1190
2017-06-03T12:07:41.048Z,1305
2017-06-03T12:08:56.770Z,1280
2017-06-03T12:10:11.904Z,1190
2017-06-03T12:11:27.314Z,1130
2017-06-03T12:12:42.790Z,1075
2017-06-03T12:13:58.491Z,1015
2017-06-03T12:15:14.021Z,905
2017-06-03T12:16:29.706Z,830
2017-06-03T12:17:45.226Z,720
2017-06-03T12:19:01.164Z,600
2017-06-03T12:20:16.610Z,520
2017-06-03T12:21:31.705Z,495
2017-06-03T12:22:47.140Z,480
2017-06-03T12:24:02.867Z,470
2017-06-03T12:25:18.388Z,480
2017-06-03T12:27:04.731Z,535
2017-06-03T12:28:20.773Z,560
2017-06-03T12:29:36.376Z,575
2017-06-03T12:30:51.484Z,565
2017-06-03T12:32:06.967Z,560
2017-06-03T12:33:22.498Z,560
2017-06-03T12:34:38.118Z,585
2017-06-03T12:35:53.628Z,615
2017-06-03T12:37:09.107Z,615
2017-06-03T12:38:24.560Z,590
2017-06-03T12:39:40.257Z,535
2017-06-03T12:40:55.697Z,485
2017-06-03T12:42:11.078Z,450
2017-06-03T12:43:26.534Z,440
2017-06-03T12:44:39.775Z,455
2017-06-03T12:45:55.554Z,470
2017-06-03T12:47:09.970Z,475
2017-06-03T12:48:25.441Z,480
2017-06-03T12:49:41.119Z,465
2017-06-03T12:50:56.639Z,445
2017-06-03T12:52:10.860Z,430
2017-06-03T12:53:26.350Z,390
2017-06-03T12:54:42.063Z,365
2017-06-03T12:55:56.220Z,360
2017-06-03T12:57:10.360Z,385
2017-06-03T12:58:24.191Z,420
2017-06-03T12:59:38.730Z,445
2017-06-03T13:00:54.196Z,460
2017-06-03T13:02:09.627Z,520
2017-06-03T13:03:25.121Z,570
2017-06-03T13:04:40.830Z,570
2017-06-03T13:05:55.041Z,560
2017-06-03T13:07:09.363Z,565
2017-06-03T13:08:24.827Z,615
2017-06-03T13:09:39.215Z,675
2017-06-03T13:10:54.735Z,685
2017-06-03T13:12:10.191Z,655
2017-06-03T13:13:24.352Z,630
2017-06-03T13:14:40.400Z,620
2017-06-03T13:15:55.858Z,695
2017-06-03T13:17:11.297Z,720
2017-06-03T13:18:26.850Z,780
2017-06-03T13:19:42.588Z,855
2017-06-03T13:20:58.023Z,920
2017-06-03T13:22:13.409Z,1175
2017-06-03T13:23:28.937Z,1220
2017-06-03T13:24:44.605Z,1630
2017-06-03T13:25:59.710Z,1765
2017-06-03T13:27:13.886Z,1735
2017-06-03T13:28:29.009Z,1630
2017-06-03T13:29:43.193Z,1575
2017-06-03T13:30:59.158Z,1400
2017-06-03T13:32:14.626Z,1300
2017-06-03T13:33:30.106Z,1375
2017-06-03T13:34:45.979Z,1420
2017-06-03T13:36:00.031Z,1550
2017-06-03T13:37:15.526Z,1630
2017-06-03T13:38:31.249Z,1615
2017-06-03T13:39:46.874Z,1590
2017-06-03T13:41:02.273Z,1465
2017-06-03T13:42:17.723Z,1375
2017-06-03T13:43:32.815Z,1280
2017-06-03T13:44:47.163Z,1365
2017-06-03T13:46:02.694Z,1390
2017-06-03T13:47:18.171Z,1385
2017-06-03T13:48:33.922Z,1475
2017-06-03T13:49:49.634Z,1585
2017-06-03T13:51:05.105Z,2055
2017-06-03T13:52:20.812Z,2060
2017-06-03T13:53:34.939Z,1830
2017-06-03T13:54:48.707Z,1630
2017-06-03T13:56:04.140Z,1500
2017-06-03T13:57:18.507Z,1565
2017-06-03T13:58:33.962Z,1560
2017-06-03T13:59:48.090Z,1605
2017-06-03T14:01:03.553Z,1510
2017-06-03T14:02:19.485Z,1580
2017-06-03T14:03:34.995Z,1535
2017-06-03T14:04:49.131Z,1850
2017-06-03T14:06:04.239Z,2065
2017-06-03T14:07:19.917Z,2045
2017-06-03T14:08:35.412Z,2005
2017-06-03T14:09:50.931Z,2065
2017-06-03T14:11:05.126Z,1855
2017-06-03T14:12:19.554Z,1780
2017-06-03T14:13:32.274Z,1760
2017-06-03T14:14:46.529Z,1925
2017-06-03T14:16:02.091Z,1740
2017-06-03T14:17:16.332Z,1805
2017-06-03T14:18:31.820Z,1965
2017-06-03T14:19:47.298Z,2005
2017-06-03T14:21:01.552Z,1850
2017-06-03T14:22:17.528Z,2415
2017-06-03T14:23:32.997Z,2200
2017-06-03T14:24:48.502Z,1640
2017-06-03T14:26:03.940Z,1140
2017-06-03T14:27:19.913Z,1040
2017-06-03T14:28:35.641Z,1390
2017-06-03T14:29:51.114Z,1595
2017-06-03T14:31:06.603Z,1290
2017-06-03T14:32:22.285Z,905
2017-06-03T14:33:37.775Z,800
2017-06-03T14:34:53.145Z,925
2017-06-03T14:36:08.633Z,1310
2017-06-03T14:37:24.342Z,2435
2017-06-03T14:38:37.182Z,2580
2017-06-03T14:39:51.389Z,2470
2017-06-03T14:41:06.830Z,1940
2017-06-03T14:42:22.544Z,1485
2017-06-03T14:43:38.272Z,1210
2017-06-03T14:44:53.735Z,1265
2017-06-03T14:46:08.064Z,1010
2017-06-03T14:47:23.803Z,910
2017-06-03T14:48:37.916Z,855
2017-06-03T14:49:53.374Z,825
2017-06-03T14:51:08.829Z,890
2017-06-03T14:52:24.537Z,1265
2017-06-03T14:53:40.013Z,1290
2017-06-03T14:54:55.565Z,1510
2017-06-03T14:56:11.042Z,1750
2017-06-03T14:57:25.600Z,1010
2017-06-03T14:58:41.072Z,2105
2017-06-03T14:59:56.598Z,1805
2017-06-03T15:01:12.507Z,1620
2017-06-03T15:02:26.894Z,1420
2017-06-03T15:03:41.108Z,1250
2017-06-03T15:04:56.597Z,965
2017-06-03T15:06:12.032Z,845
2017-06-03T15:07:27.766Z,835
2017-06-03T15:08:43.239Z,805
2017-06-03T15:09:58.714Z,790
2017-06-03T15:11:12.841Z,755
2017-06-03T15:12:28.560Z,740
2017-06-03T15:13:44.029Z,730
2017-06-03T15:14:59.158Z,710
2017-06-03T15:16:14.713Z,700
2017-06-03T15:17:30.409Z,690
2017-06-03T15:18:44.447Z,715
2017-06-03T15:19:59.847Z,735
2017-06-03T15:21:14.533Z,730
2017-06-03T15:22:30.703Z,710
2017-06-03T15:23:46.087Z,680
2017-06-03T15:25:01.560Z,615
2017-06-03T15:26:17.030Z,585
2017-06-03T15:27:32.790Z,555
2017-06-03T15:28:48.374Z,540
2017-06-03T15:30:03.567Z,510
2017-06-03T15:31:19.240Z,495
2017-06-03T15:32:33.510Z,475
2017-06-03T15:33:48.897Z,480
2017-06-03T15:35:04.409Z,495
2017-06-03T15:36:20.100Z,505
2017-06-03T15:37:35.856Z,515
2017-06-03T15:38:51.353Z,510
2017-06-03T15:40:05.495Z,500
2017-06-03T15:41:19.541Z,485
2017-06-03T15:42:35.143Z,470
2017-06-03T15:43:50.799Z,450
2017-06-03T15:45:06.260Z,425
2017-06-03T15:46:21.902Z,415
2017-06-03T15:47:35.786Z,410
2017-06-03T15:48:51.509Z,425
2017-06-03T15:50:06.992Z,420
2017-06-03T15:51:21.233Z,420
2017-06-03T15:52:36.810Z,415
2017-06-03T15:53:52.031Z,410
2017-06-03T15:55:07.511Z,410
2017-06-03T15:56:21.702Z,405
2017-06-03T15:57:37.247Z,405
2017-06-03T15:58:53.286Z,400
2017-06-03T16:00:08.863Z,390
2017-06-03T16:01:23.014Z,375
2017-06-03T16:02:38.483Z,360
2017-06-03T16:03:54.210Z,345
2017-06-03T16:05:09.892Z,340
2017-06-03T16:06:25.319Z,325
2017-06-03T16:07:40.802Z,310
2017-06-03T16:08:56.757Z,300
2017-06-03T16:10:12.239Z,290
2017-06-03T16:11:27.711Z,285
2017-06-03T16:12:41.795Z,280
2017-06-03T16:13:57.448Z,270
2017-06-03T16:15:12.950Z,270
2017-06-03T16:16:28.447Z,275
2017-06-03T16:17:42.522Z,280
2017-06-03T16:18:57.805Z,290
2017-06-03T16:20:12.152Z,295
2017-06-03T16:21:27.588Z,305
2017-06-03T16:22:43.074Z,310
2017-06-03T16:23:58.774Z,310
2017-06-03T16:25:14.217Z,315
2017-06-03T16:26:28.388Z,310
2017-06-03T16:27:43.894Z,310
2017-06-03T16:28:56.963Z,305
2017-06-03T16:30:12.487Z,305
2017-06-03T16:31:27.961Z,305
2017-06-03T16:32:42.084Z,300
2017-06-03T16:33:57.015Z,285
2017-06-03T16:35:12.495Z,270
2017-06-03T16:36:27.964Z,255
2017-06-03T16:37:43.353Z,255
2017-06-03T16:38:59.495Z,250
2017-06-03T16:40:15.090Z,255
2017-06-03T16:41:30.556Z,270
2017-06-03T16:42:46.045Z,270
2017-06-03T16:44:01.683Z,280
2017-06-03T16:45:17.094Z,285
2017-06-03T16:46:31.170Z,285
2017-06-03T16:47:44.064Z,280
2017-06-03T16:48:59.642Z,280
2017-06-03T16:50:15.078Z,275
2017-06-03T16:51:30.572Z,275
2017-06-03T16:52:44.627Z,275
2017-06-03T16:54:00.273Z,270
2017-06-03T16:55:14.681Z,260
2017-06-03T16:56:30.157Z,255
2017-06-03T16:57:45.627Z,245
2017-06-03T16:59:01.361Z,240
2017-06-03T17:00:15.392Z,230
2017-06-03T17:01:30.870Z,225
2017-06-03T17:02:46.723Z,225
2017-06-03T17:04:02.348Z,230
2017-06-03T17:05:17.861Z,240
2017-06-03T17:06:33.316Z,245
2017-06-03T17:07:48.781Z,235
2017-06-03T17:09:04.589Z,220
2017-06-03T17:10:20.068Z,200
2017-06-03T17:11:35.573Z,185
2017-06-03T17:12:51.015Z,175
2017-06-03T17:14:06.705Z,165
2017-06-03T17:15:21.756Z,160
2017-06-03T17:16:34.425Z,155
2017-06-03T17:17:49.868Z,145
2017-06-03T17:19:05.618Z,140
2017-06-03T17:20:19.782Z,130
2017-06-03T17:21:35.299Z,125
2017-06-03T17:22:50.701Z,125
2017-06-03T17:24:06.728Z,120
2017-06-03T17:25:22.198Z,120
2017-06-03T17:26:36.366Z,120
2017-06-03T17:27:51.778Z,115
2017-06-03T17:29:05.933Z,115
2017-06-03T17:30:21.790Z,110